createdAt,value
2022-11-24T00:01:27.805Z,62.50
2022-11-24T00:07:30.129Z,50.00
2022-11-24T00:13:33.417Z,54.00
2022-11-24T00:19:35.373Z,57.50
2022-11-24T00:25:39.821Z,56.00
2022-11-24T00:31:43.038Z,62.50
2022-11-24T00:37:44.943Z,45.50
2022-11-24T00:43:47.210Z,66.50
2022-11-24T00:49:49.363Z,58.75
2022-11-24T00:55:52.199Z,62.50
2022-11-24T01:01:57.121Z,65.50
2022-11-24T01:07:59.111Z,68.75
2022-11-24T01:14:01.012Z,68.33
2022-11-24T01:20:05.731Z,60.50
2022-11-24T01:26:09.942Z,56.50
2022-11-24T01:32:12.853Z,63.75
2022-11-24T01:38:14.758Z,54.25
2022-11-24T01:44:27.556Z,46.50
2022-11-24T01:50:31.358Z,57.00
2022-11-24T01:56:41.124Z,51.50
2022-11-24T02:02:45.283Z,60.50
2022-11-24T02:09:12.581Z,50.50
2022-11-24T02:15:16.314Z,39.00
2022-11-24T02:21:20.049Z,54.00
2022-11-24T02:27:22.238Z,42.00
2022-11-24T02:33:26.787Z,47.25
2022-11-24T02:39:29.159Z,41.50
2022-11-24T02:45:33.982Z,37.00
2022-11-24T02:51:36.094Z,44.00
2022-11-24T02:57:38.653Z,49.75
2022-11-24T03:03:40.574Z,42.00
2022-11-24T03:09:42.739Z,39.25
2022-11-24T03:15:45.228Z,42.75
2022-11-24T03:21:47.274Z,38.25
2022-11-24T03:27:50.244Z,40.25
2022-11-24T03:33:52.297Z,48.50
2022-11-24T03:39:55.497Z,48.00
2022-11-24T03:46:00.307Z,43.50
2022-11-24T03:52:07.654Z,44.00
2022-11-24T03:58:10.313Z,39.50
2022-11-24T04:04:13.230Z,50.00
2022-11-24T04:10:15.253Z,42.75
2022-11-24T04:16:18.570Z,45.75
2022-11-24T04:22:20.550Z,47.50
2022-11-24T04:28:22.999Z,47.75
2022-11-24T04:34:24.948Z,50.50
2022-11-24T04:40:27.090Z,57.00
2022-11-24T04:46:29.415Z,48.75
2022-11-24T04:52:35.367Z,52.25
2022-11-24T04:58:37.737Z,53.00
2022-11-24T05:04:43.358Z,58.50
2022-11-24T05:10:45.496Z,50.75
2022-11-24T05:16:47.406Z,46.50
2022-11-24T09:15:17.260Z,36.75
2022-11-24T09:21:21.254Z,34.50
2022-11-24T09:27:24.521Z,29.50
2022-11-24T09:33:27.670Z,49.25
2022-11-24T09:39:29.740Z,40.00
2022-11-24T09:46:06.211Z,47.75
2022-11-24T09:52:17.301Z,37.50
2022-11-24T10:05:06.013Z,44.50
2022-11-24T10:11:31.877Z,24.50
2022-11-24T10:17:45.618Z,68.00
2022-11-24T10:24:13.826Z,39.75
2022-11-24T10:30:24.109Z,39.75
2022-11-24T10:36:40.401Z,42.00
2022-11-24T10:42:43.682Z,33.50
2022-11-24T10:48:51.922Z,44.50
2022-11-24T10:55:01.774Z,34.00
2022-11-24T11:01:14.372Z,36.75
2022-11-24T11:07:33.899Z,42.75
2022-11-24T11:13:35.918Z,40.00
2022-11-24T11:20:01.707Z,36.50
2022-11-24T11:26:38.324Z,39.25
2022-11-24T11:39:43.842Z,49.75
2022-11-24T11:46:02.442Z,50.75
2022-11-24T11:52:26.313Z,44.00
2022-11-24T11:58:39.197Z,47.25
2022-11-24T12:05:12.064Z,44.50
2022-11-24T12:11:21.994Z,40.00
2022-11-24T12:17:33.478Z,40.25
2022-11-24T12:23:54.355Z,40.50
2022-11-24T12:30:11.266Z,32.75
2022-11-24T12:36:17.161Z,35.75
2022-11-24T12:42:35.965Z,34.00
2022-11-24T12:48:59.772Z,21.00
2022-11-24T12:55:03.900Z,21.50
2022-11-24T13:01:38.334Z,22.00
2022-11-24T13:07:46.913Z,53.00
2022-11-24T13:14:14.123Z,19.75
2022-11-24T13:20:31.703Z,20.75
2022-11-24T13:26:43.729Z,17.00
2022-11-24T13:32:46.981Z,18.00
2022-11-24T13:38:48.932Z,16.50
2022-11-24T13:45:00.317Z,19.50
2022-11-24T13:51:02.235Z,25.75
2022-11-24T13:57:33.391Z,21.75
2022-11-24T14:03:55.390Z,21.00
2022-11-24T14:09:58.552Z,16.25
2022-11-24T14:16:04.721Z,25.50
2022-11-24T14:22:16.274Z,30.00
2022-11-24T14:28:30.530Z,20.75
2022-11-24T14:34:37.001Z,19.25
2022-11-24T14:40:43.294Z,30.25
2022-11-24T14:46:45.741Z,26.25
2022-11-24T14:52:54.287Z,32.25
2022-11-24T14:58:57.971Z,30.25
2022-11-24T15:05:03.228Z,23.00
2022-11-24T15:11:08.028Z,50.25
2022-11-24T15:17:20.449Z,23.75
2022-11-24T15:23:27.903Z,29.25
2022-11-24T15:29:30.907Z,24.75
2022-11-24T15:35:34.089Z,24.50
2022-11-24T15:41:36.047Z,21.50
2022-11-24T15:47:37.985Z,27.50
2022-11-24T15:53:45.100Z,24.25
2022-11-24T15:59:47.107Z,23.25
2022-11-24T16:05:53.408Z,24.00
2022-11-24T16:11:55.369Z,29.75
2022-11-24T16:17:57.833Z,30.00
2022-11-24T16:24:00.473Z,31.75
2022-11-24T16:30:02.613Z,32.00
2022-11-24T16:36:05.609Z,35.00
2022-11-24T16:42:08.405Z,32.00
2022-11-24T16:48:11.285Z,33.75
2022-11-24T16:54:15.568Z,30.25
2022-11-24T17:00:18.075Z,33.75
2022-11-24T17:06:20.284Z,36.50
2022-11-24T17:12:24.134Z,27.75
2022-11-24T17:18:26.072Z,38.25
2022-11-24T17:24:28.042Z,31.00
2022-11-24T17:30:30.124Z,32.50
2022-11-24T17:36:35.689Z,35.25
2022-11-24T17:42:37.608Z,36.50
2022-11-24T17:48:40.624Z,34.50
2022-11-24T17:54:46.763Z,32.25
2022-11-24T18:00:49.840Z,40.00
2022-11-24T18:06:53.001Z,33.25
2022-11-24T18:12:55.090Z,37.50
2022-11-24T18:19:14.348Z,40.50
2022-11-24T18:25:19.379Z,33.00
2022-11-24T18:31:22.561Z,28.50
2022-11-24T18:37:24.847Z,30.00
2022-11-24T18:43:28.717Z,37.25
2022-11-24T18:49:32.123Z,33.75
2022-11-24T18:55:34.126Z,29.25
2022-11-24T19:01:37.757Z,31.50
2022-11-24T19:07:39.845Z,24.00
2022-11-24T19:13:41.821Z,30.25
2022-11-24T19:19:43.985Z,29.25
2022-11-24T19:25:45.993Z,24.25
2022-11-24T19:31:49.420Z,29.25
2022-11-24T19:37:51.605Z,24.25
2022-11-24T19:43:56.695Z,30.50
2022-11-24T19:49:58.653Z,29.25
2022-11-24T19:56:26.000Z,18.50
2022-11-24T20:02:29.609Z,21.25
2022-11-24T20:08:34.173Z,26.00
2022-11-24T20:14:36.345Z,25.25
2022-11-24T20:20:38.532Z,27.25
2022-11-24T20:26:49.476Z,18.75
2022-11-24T20:32:51.433Z,27.00
2022-11-24T20:38:54.516Z,24.50
2022-11-24T20:45:00.981Z,20.50
2022-11-24T20:51:04.796Z,27.75
2022-11-24T20:57:06.801Z,21.25
2022-11-24T21:03:08.748Z,27.25
2022-11-24T21:09:12.553Z,28.75
2022-11-24T21:15:14.578Z,17.75
2022-11-24T21:21:19.848Z,25.00
2022-11-24T21:27:21.849Z,17.00
2022-11-24T21:33:24.708Z,29.25
2022-11-24T21:39:29.415Z,23.25
2022-11-24T21:45:34.823Z,18.00
2022-11-24T21:51:36.836Z,28.00
2022-11-24T21:57:39.269Z,23.50
2022-11-24T22:03:41.378Z,21.25
2022-11-24T22:09:43.743Z,23.00
2022-11-24T22:15:46.000Z,17.75
2022-11-24T22:21:48.424Z,19.25
2022-11-24T22:27:51.007Z,14.00
2022-11-24T22:33:55.068Z,18.50
2022-11-24T22:39:57.186Z,19.50
2022-11-24T22:46:06.355Z,24.00
2022-11-24T22:52:08.972Z,14.25
2022-11-24T22:58:10.896Z,19.00
2022-11-24T23:04:13.671Z,19.00
2022-11-24T23:10:16.591Z,18.25
2022-11-24T23:16:19.914Z,17.00
2022-11-24T23:22:21.906Z,18.75
2022-11-24T23:28:23.804Z,20.00
2022-11-24T23:34:25.814Z,20.50
2022-11-24T23:40:27.921Z,20.00
2022-11-24T23:46:30.617Z,9.50
2022-11-24T23:52:33.276Z,18.00
2022-11-24T23:58:36.253Z,20.25
